This is the latest recevied weather packets stored in our database for station/object YD1OCG-15. If no packets are shown the sender has not sent any weather packets the latest 10 day(s).
| Time | Temp. | Humidity | Pressure | Rain* | Wind** | Luminosity | Snow |
|---|---|---|---|---|---|---|---|
| 1788613763 | 26.11° C | 51% | 1015 hPa | - | - | - | - |
| 1788611964 | 27.22° C | 61% | 1016 hPa | - | - | - | - |
| 1788610164 | 27.22° C | 55% | 1015 hPa | - | - | - | - |
| 1788608363 | 27.22° C | 56% | 1015 hPa | - | - | - | - |
| 1788606563 | 27.78° C | 44% | 1013 hPa | - | - | - | - |
| 1788604764 | 28.33° C | 51% | 1014 hPa | - | - | - | - |
| 1788603204 | 30° C | 35% | 1013 hPa | - | - | - | - |
| 1788601410 | 30° C | 31% | 1012 hPa | - | - | - | - |
| 1788599604 | 31.11° C | 51% | 1012 hPa | - | - | - | - |
| 1788597804 | 31.11° C | 49% | 1011 hPa | - | - | - | - |
| 1788596004 | 31.67° C | 47% | 1011 hPa | - | - | - | - |
| 1788592164 | 31.67° C | 49% | 1012 hPa | - | - | - | - |
| 1788590364 | 34.44° C | 10% | - | - | - | - | - |
| 1788586763 | 33.33° C | 85% | 1013 hPa | - | - | - | - |
| 1788584963 | 32.22° C | 85% | 1014 hPa | - | - | - | - |
| 1788583164 | 32.22° C | 85% | 1014 hPa | - | - | - | - |
| 1788581363 | 30.56° C | 79% | 1015 hPa | - | - | - | - |
| 1788579563 | 30° C | 10% | - | - | - | - | - |
| 1788577764 | 28.89° C | 52% | 1017 hPa | - | - | - | - |
| 1788575964 | 28.33° C | 63% | 1017 hPa | - | - | - | - |
| 1788572363 | 25.56° C | 47% | 1018 hPa | - | - | - | - |
| 1788570563 | 25° C | 49% | 1018 hPa | - | - | - | - |
| 1788568764 | 23.89° C | 52% | 1017 hPa | - | - | - | - |
| 1788566964 | 25° C | 72% | 1017 hPa | - | - | - | - |
| 1788565163 | 25° C | 72% | 1018 hPa | - | - | - | - |
* Rain since midnight (hover to see other rain measurements)
** Current wind speed in m/s (hover to see current wind gust speed)